createdAt,value
2019-03-24T00:01:40.465Z,86.02
2019-03-24T00:06:34.880Z,86.96
2019-03-24T00:09:03.224Z,86.67
2019-03-24T00:11:31.572Z,86.02
2019-03-24T00:16:36.149Z,84.78
2019-03-24T00:21:38.730Z,83.28
2019-03-24T00:24:07.096Z,86.56
2019-03-24T00:26:36.378Z,85.77
2019-03-24T00:29:04.720Z,84.80
2019-03-24T00:31:34.075Z,87.16
2019-03-24T00:34:03.410Z,88.51
2019-03-24T00:36:31.809Z,89.11
2019-03-24T00:39:01.214Z,89.45
2019-03-24T00:41:29.558Z,89.45
2019-03-24T00:43:57.924Z,90.03
2019-03-24T00:46:26.289Z,90.59
2019-03-24T00:48:54.647Z,90.60
2019-03-24T00:51:22.996Z,90.35
2019-03-24T00:53:51.344Z,89.58
2019-03-24T00:56:19.734Z,89.87
2019-03-24T00:58:48.068Z,88.91
2019-03-24T01:01:16.458Z,88.40
2019-03-24T01:03:44.795Z,87.72
2019-03-24T01:06:13.131Z,88.38
2019-03-24T01:08:41.524Z,90.15
2019-03-24T01:11:09.894Z,90.56
2019-03-24T01:13:38.305Z,90.68
2019-03-24T01:16:07.630Z,91.67
2019-03-24T01:18:36.019Z,91.85
2019-03-24T01:21:04.358Z,91.35
2019-03-24T01:23:32.733Z,90.80
2019-03-24T01:26:01.160Z,90.62
2019-03-24T01:28:29.515Z,90.33
2019-03-24T01:30:57.869Z,90.85
2019-03-24T01:36:00.476Z,90.15
2019-03-24T01:38:28.822Z,90.93
2019-03-24T01:40:57.170Z,91.37
2019-03-24T01:45:59.869Z,91.19
2019-03-24T01:48:28.332Z,91.70
2019-03-24T01:50:56.715Z,92.10
2019-03-24T01:53:25.064Z,91.96
2019-03-24T01:55:53.426Z,90.93
2019-03-24T01:58:22.722Z,90.66
2019-03-24T02:00:51.138Z,91.03
2019-03-24T02:03:19.415Z,91.17
2019-03-24T02:05:47.812Z,90.75
2019-03-24T02:10:50.347Z,91.00
2019-03-24T02:13:18.741Z,90.86
2019-03-24T02:15:47.980Z,89.70
2019-03-24T02:18:16.325Z,89.80
2019-03-24T02:20:44.727Z,89.95
2019-03-24T02:23:13.087Z,90.70
2019-03-24T02:25:41.589Z,90.88
2019-03-24T02:28:09.948Z,90.62
2019-03-24T02:30:38.274Z,90.22
2019-03-24T02:33:06.625Z,90.49
2019-03-24T02:35:35.058Z,90.17
2019-03-24T02:38:04.354Z,85.89
2019-03-24T02:40:32.705Z,86.63
2019-03-24T02:43:01.087Z,87.37
2019-03-24T02:48:03.677Z,88.34
2019-03-24T02:50:32.037Z,88.17
2019-03-24T02:53:00.405Z,87.41
2019-03-24T02:55:28.907Z,86.36
2019-03-24T03:00:31.474Z,88.94
2019-03-24T03:02:59.839Z,92.92
2019-03-24T03:05:29.168Z,94.47
2019-03-24T03:07:57.522Z,95.24
2019-03-24T03:10:25.930Z,94.42
2019-03-24T03:12:54.273Z,93.17
2019-03-24T03:15:22.629Z,93.09
2019-03-24T03:17:51.031Z,95.69
2019-03-24T03:20:19.382Z,96.52
2019-03-24T03:22:49.647Z,95.65
2019-03-24T03:25:17.993Z,95.20
2019-03-24T03:27:46.370Z,93.74
2019-03-24T03:30:14.919Z,91.48
2019-03-24T03:32:46.581Z,88.74
2019-03-24T03:35:14.929Z,86.35
2019-03-24T03:37:43.364Z,87.17
2019-03-24T03:40:11.711Z,89.45
2019-03-24T03:42:40.061Z,93.07
2019-03-24T03:45:08.407Z,95.26
2019-03-24T03:47:41.512Z,96.56
2019-03-24T03:50:09.896Z,97.81
2019-03-24T03:52:39.198Z,97.73
2019-03-24T03:55:07.587Z,97.52
2019-03-24T03:57:36.286Z,97.35
2019-03-24T04:00:06.565Z,97.37
2019-03-24T04:02:34.957Z,97.80
2019-03-24T04:05:03.305Z,97.74
2019-03-24T04:07:31.678Z,97.87
2019-03-24T04:10:00.087Z,96.97
2019-03-24T04:12:28.413Z,96.82
2019-03-24T04:14:56.754Z,96.11
2019-03-24T04:17:25.221Z,94.12
2019-03-24T04:22:27.662Z,92.98
2019-03-24T04:24:56.124Z,93.22
2019-03-24T04:27:24.501Z,93.67
2019-03-24T04:29:52.887Z,93.84
2019-03-24T04:32:21.282Z,93.41
2019-03-24T04:37:23.919Z,97.61
2019-03-24T04:39:52.268Z,97.36
2019-03-24T04:42:20.643Z,98.58
2019-03-24T04:47:23.308Z,98.08
2019-03-24T04:49:51.684Z,97.46
2019-03-24T04:52:20.033Z,97.11
2019-03-24T05:02:31.063Z,97.57
2019-03-24T05:04:59.419Z,97.87
2019-03-24T05:07:27.794Z,98.10
2019-03-24T05:09:56.152Z,97.73
2019-03-24T05:14:58.733Z,97.59
2019-03-24T05:17:27.984Z,97.32
2019-03-24T05:19:56.329Z,97.06
2019-03-24T05:22:25.557Z,96.87
2019-03-24T05:24:56.114Z,97.61
2019-03-24T05:27:24.448Z,97.73
2019-03-24T05:29:52.819Z,97.21
2019-03-24T05:32:21.168Z,96.41
2019-03-24T05:34:49.544Z,96.20
2019-03-24T05:37:18.019Z,96.23
2019-03-24T05:39:46.405Z,96.17
2019-03-24T05:42:14.743Z,96.27
2019-03-24T05:44:44.137Z,96.19
2019-03-24T05:47:12.442Z,96.00
2019-03-24T05:49:40.841Z,96.01
2019-03-24T05:52:09.188Z,95.81
2019-03-24T05:54:38.449Z,95.61
2019-03-24T05:57:06.893Z,95.36
2019-03-24T05:59:36.129Z,94.52
2019-03-24T06:02:04.476Z,94.55
2019-03-24T06:04:32.877Z,94.10
2019-03-24T06:09:37.391Z,93.34
2019-03-24T06:12:05.736Z,92.92
2019-03-24T06:14:34.095Z,92.57
2019-03-24T06:17:03.352Z,91.42
2019-03-24T06:19:31.706Z,91.07
2019-03-24T06:22:00.103Z,91.08
2019-03-24T06:24:28.484Z,90.89
2019-03-24T06:26:56.846Z,90.02
2019-03-24T06:29:25.197Z,89.72
2019-03-24T06:31:53.523Z,89.50
2019-03-24T06:34:21.915Z,88.69
2019-03-24T06:36:50.254Z,88.21
2019-03-24T06:39:18.603Z,87.89
2019-03-24T06:41:46.945Z,86.69
2019-03-24T06:44:15.417Z,86.70
2019-03-24T06:46:43.763Z,86.67
2019-03-24T06:49:13.114Z,86.45
2019-03-24T06:51:41.448Z,85.62
2019-03-24T06:54:09.815Z,85.24
2019-03-24T06:56:39.136Z,85.57
2019-03-24T06:59:07.506Z,84.26
2019-03-24T07:01:36.854Z,82.58
2019-03-24T07:04:05.290Z,81.28
2019-03-24T07:06:34.787Z,80.86
2019-03-24T07:09:01.972Z,79.59
2019-03-24T07:11:30.320Z,79.04
2019-03-24T07:13:58.665Z,78.65
2019-03-24T07:16:27.022Z,78.53
2019-03-24T07:18:55.360Z,78.31
2019-03-24T07:24:00.611Z,77.54
2019-03-24T07:26:28.417Z,76.85
2019-03-24T07:28:56.749Z,76.03
2019-03-24T07:31:25.087Z,74.34
2019-03-24T07:33:53.448Z,75.14
2019-03-24T07:36:21.847Z,73.88
2019-03-24T07:38:50.188Z,74.01
2019-03-24T07:41:18.601Z,73.15
2019-03-24T07:43:46.908Z,72.02
2019-03-24T07:46:15.259Z,72.40
2019-03-24T07:48:43.667Z,71.26
2019-03-24T07:51:12.007Z,70.96
2019-03-24T07:56:14.691Z,68.99
2019-03-24T07:58:43.033Z,69.24
2019-03-24T08:01:11.441Z,67.98
2019-03-24T08:03:40.750Z,67.72
2019-03-24T08:08:44.419Z,68.69
2019-03-24T08:11:11.663Z,66.00
2019-03-24T08:13:40.023Z,66.17
2019-03-24T08:16:09.317Z,65.84
2019-03-24T08:21:13.947Z,63.44
2019-03-24T08:23:42.321Z,63.46
2019-03-24T08:26:11.748Z,62.84
2019-03-24T08:28:40.090Z,62.99
2019-03-24T08:31:08.443Z,62.10
2019-03-24T08:33:36.807Z,60.47
2019-03-24T08:36:05.252Z,61.85
2019-03-24T08:38:33.639Z,61.63
2019-03-24T08:41:02.274Z,60.51
2019-03-24T08:43:30.736Z,62.38
2019-03-24T08:45:59.127Z,58.88
2019-03-24T08:48:27.490Z,57.75
2019-03-24T08:50:55.886Z,59.05
2019-03-24T08:53:24.278Z,56.16
2019-03-24T08:55:52.645Z,58.37
2019-03-24T08:58:21.032Z,55.90
2019-03-24T09:00:50.296Z,56.61
2019-03-24T09:03:18.618Z,54.47
2019-03-24T09:05:46.978Z,53.20
2019-03-24T09:08:15.319Z,47.87
2019-03-24T09:10:43.679Z,45.24
2019-03-24T09:15:46.228Z,41.53
2019-03-24T09:18:14.598Z,41.55
2019-03-24T09:20:43.900Z,39.10
2019-03-24T09:23:12.322Z,34.90
2019-03-24T09:25:40.683Z,33.88
2019-03-24T09:30:43.330Z,32.46
2019-03-24T09:33:11.670Z,34.82
2019-03-24T09:35:40.064Z,29.24
2019-03-24T09:38:08.749Z,30.79
2019-03-24T09:40:39.250Z,28.76
2019-03-24T09:43:07.733Z,35.02
2019-03-24T09:48:13.508Z,28.76
2019-03-24T09:50:41.867Z,33.60
2019-03-24T09:53:10.266Z,27.39
2019-03-24T09:55:39.588Z,25.87
2019-03-24T09:58:07.948Z,27.20
2019-03-24T10:00:36.310Z,27.02
2019-03-24T10:03:06.665Z,28.08
2019-03-24T10:05:35.009Z,26.38
2019-03-24T10:08:03.398Z,25.75
2019-03-24T10:10:31.777Z,26.90
2019-03-24T10:13:00.163Z,26.49
2019-03-24T10:15:28.510Z,26.55
2019-03-24T10:17:57.091Z,26.39
2019-03-24T10:20:25.489Z,24.20
2019-03-24T10:22:54.843Z,23.32
2019-03-24T10:25:23.175Z,24.10
2019-03-24T10:27:51.594Z,24.45
2019-03-24T10:30:19.932Z,23.06
2019-03-24T10:32:49.295Z,23.19
2019-03-24T10:35:17.686Z,21.07
2019-03-24T10:37:46.065Z,23.15
2019-03-24T10:40:14.408Z,22.27
2019-03-24T10:42:42.765Z,21.34
2019-03-24T10:45:11.142Z,23.19
2019-03-24T10:47:39.491Z,23.35
2019-03-24T10:50:07.855Z,24.67
2019-03-24T10:52:36.207Z,22.70
2019-03-24T10:55:04.550Z,23.98
2019-03-24T11:00:08.149Z,23.08
2019-03-24T11:02:36.550Z,21.28
2019-03-24T11:05:04.928Z,22.25
2019-03-24T11:07:33.411Z,21.43
2019-03-24T11:10:01.796Z,21.49
2019-03-24T11:12:30.182Z,19.62
2019-03-24T11:14:58.522Z,22.15
2019-03-24T11:17:26.965Z,21.59
2019-03-24T11:19:55.274Z,22.62
2019-03-24T11:22:23.637Z,21.54
2019-03-24T11:24:52.017Z,22.23
2019-03-24T11:27:20.392Z,23.40
2019-03-24T11:29:48.836Z,23.48
2019-03-24T11:32:17.167Z,22.52
2019-03-24T11:34:46.390Z,21.14
2019-03-24T11:37:14.737Z,18.69
2019-03-24T11:39:43.091Z,18.96
2019-03-24T11:42:11.431Z,18.12
2019-03-24T11:44:39.802Z,16.79
2019-03-24T11:47:08.145Z,19.67
2019-03-24T11:49:45.669Z,20.67
2019-03-24T11:52:05.017Z,18.38
2019-03-24T11:54:33.374Z,17.98
2019-03-24T11:57:02.611Z,20.21
2019-03-24T11:59:31.022Z,18.16
2019-03-24T12:02:01.257Z,17.69
2019-03-24T12:04:29.674Z,17.85
2019-03-24T12:06:58.020Z,20.51
2019-03-24T12:09:26.413Z,20.46
2019-03-24T12:11:54.757Z,21.05
2019-03-24T12:14:23.150Z,20.32
2019-03-24T12:16:51.520Z,20.01
2019-03-24T12:19:19.882Z,21.33
2019-03-24T12:21:48.228Z,19.21
2019-03-24T12:24:16.648Z,18.02
2019-03-24T12:26:45.007Z,20.93
2019-03-24T12:29:13.396Z,19.08
2019-03-24T12:31:41.758Z,18.33
2019-03-24T12:34:10.117Z,18.19
2019-03-24T12:36:38.533Z,17.40
2019-03-24T12:41:43.233Z,17.53
2019-03-24T12:44:11.610Z,17.92
2019-03-24T12:46:39.955Z,19.12
2019-03-24T12:49:08.313Z,20.66
2019-03-24T12:54:19.078Z,21.29
2019-03-24T12:56:47.441Z,19.25
2019-03-24T12:59:15.885Z,18.86
2019-03-24T13:01:44.273Z,21.25
2019-03-24T13:04:12.660Z,17.79
2019-03-24T13:06:41.046Z,17.19
2019-03-24T13:09:10.425Z,18.05
2019-03-24T13:14:13.171Z,19.29
2019-03-24T13:16:41.518Z,19.71
2019-03-24T13:19:09.888Z,18.91
2019-03-24T13:21:39.221Z,18.82
2019-03-24T13:24:07.601Z,19.23
2019-03-24T13:26:35.953Z,19.24
2019-03-24T13:29:04.294Z,21.37
2019-03-24T13:34:12.071Z,21.32
2019-03-24T13:36:40.512Z,21.85
2019-03-24T13:39:08.883Z,22.40
2019-03-24T13:41:37.231Z,21.96
2019-03-24T13:46:41.916Z,22.73
2019-03-24T13:49:10.273Z,21.46
2019-03-24T13:54:12.993Z,19.24
2019-03-24T13:56:41.342Z,20.47
2019-03-24T13:59:09.775Z,19.12
2019-03-24T14:01:38.113Z,21.88
2019-03-24T14:06:40.788Z,23.10
2019-03-24T14:09:09.141Z,23.19
2019-03-24T14:11:37.496Z,22.76
2019-03-24T14:14:05.836Z,20.85
2019-03-24T14:16:51.601Z,20.10
2019-03-24T14:19:19.960Z,21.52
2019-03-24T14:24:22.704Z,23.15
2019-03-24T14:26:51.070Z,21.74
2019-03-24T14:29:19.433Z,21.68
2019-03-24T14:31:47.771Z,23.54
2019-03-24T14:34:16.124Z,23.78
2019-03-24T14:36:44.506Z,23.46
2019-03-24T14:39:12.883Z,24.95
2019-03-24T14:41:41.207Z,25.88
2019-03-24T14:44:09.546Z,24.86
2019-03-24T14:46:37.932Z,25.71
2019-03-24T14:51:40.652Z,26.16
2019-03-24T14:54:08.999Z,26.67
2019-03-24T14:56:37.348Z,27.49
2019-03-24T14:59:05.705Z,27.47
2019-03-24T15:01:34.064Z,26.58
2019-03-24T15:06:39.829Z,24.86
2019-03-24T15:09:08.188Z,24.25
2019-03-24T15:11:36.647Z,25.25
2019-03-24T15:14:05.108Z,27.30
2019-03-24T15:16:33.469Z,27.26
2019-03-24T15:19:01.869Z,25.95
2019-03-24T15:24:04.520Z,25.83
2019-03-24T15:26:32.893Z,27.04
2019-03-24T15:29:01.224Z,26.52
2019-03-24T15:31:29.628Z,26.48
2019-03-24T15:33:57.997Z,27.85
2019-03-24T15:36:26.364Z,27.46
2019-03-24T15:38:54.721Z,26.61
2019-03-24T15:41:23.098Z,26.53
2019-03-24T15:43:51.443Z,26.52
2019-03-24T15:46:19.800Z,27.24
2019-03-24T15:48:50.078Z,26.92
2019-03-24T15:51:17.378Z,26.90
2019-03-24T15:56:19.242Z,27.27
2019-03-24T15:58:47.689Z,28.00
2019-03-24T16:01:16.075Z,28.09
2019-03-24T16:03:44.536Z,28.92
2019-03-24T16:06:12.950Z,29.98
2019-03-24T16:08:41.268Z,32.08
2019-03-24T16:11:09.609Z,32.78
2019-03-24T16:13:41.156Z,33.52
2019-03-24T16:16:09.560Z,34.17
2019-03-24T16:18:37.940Z,35.11
2019-03-24T16:21:06.293Z,35.39
2019-03-24T16:23:35.212Z,35.18
2019-03-24T16:28:39.932Z,35.40
2019-03-24T16:31:08.312Z,36.18
2019-03-24T16:33:36.721Z,37.07
2019-03-24T16:36:05.170Z,36.19
2019-03-24T16:38:33.528Z,36.50
2019-03-24T16:41:01.881Z,36.13
2019-03-24T16:43:30.293Z,35.11
2019-03-24T16:45:58.663Z,37.34
2019-03-24T16:48:36.474Z,36.53
2019-03-24T16:50:55.424Z,36.70
2019-03-24T16:53:23.808Z,36.96
2019-03-24T16:55:52.180Z,37.41
2019-03-24T16:58:20.571Z,38.21
2019-03-24T17:00:48.967Z,38.54
2019-03-24T17:03:18.238Z,39.58
2019-03-24T17:05:47.540Z,39.55
2019-03-24T17:08:15.918Z,39.58
2019-03-24T17:10:44.310Z,40.25
2019-03-24T17:13:12.672Z,40.89
2019-03-24T17:15:41.136Z,42.19
2019-03-24T17:18:09.448Z,42.85
2019-03-24T17:20:37.871Z,43.43
2019-03-24T17:23:06.224Z,42.93
2019-03-24T17:25:34.625Z,44.98
2019-03-24T17:28:03.032Z,45.13
2019-03-24T17:30:32.358Z,45.79
2019-03-24T17:33:00.728Z,45.05
2019-03-24T17:35:29.093Z,46.90
2019-03-24T17:40:31.721Z,47.73
2019-03-24T17:43:00.068Z,47.93
2019-03-24T17:45:31.434Z,48.43
2019-03-24T17:48:00.704Z,50.37
2019-03-24T17:50:30.036Z,50.20
2019-03-24T17:52:58.388Z,50.18
2019-03-24T17:55:27.784Z,51.84
2019-03-24T17:57:55.202Z,51.81
2019-03-24T18:00:35.015Z,52.88
2019-03-24T18:03:03.453Z,53.88
2019-03-24T18:05:33.749Z,53.81
2019-03-24T18:10:36.452Z,54.62
2019-03-24T18:15:40.014Z,55.97
2019-03-24T18:18:09.433Z,58.15
2019-03-24T18:20:37.793Z,56.77
2019-03-24T18:23:06.154Z,57.10
2019-03-24T18:25:34.600Z,56.93
2019-03-24T18:30:37.231Z,58.57
2019-03-24T18:33:05.584Z,59.74
2019-03-24T18:38:10.166Z,62.59
2019-03-24T18:40:39.403Z,63.01
2019-03-24T18:43:07.766Z,63.58
2019-03-24T18:45:36.207Z,64.11
2019-03-24T18:48:04.577Z,64.14
2019-03-24T18:50:33.929Z,63.32
2019-03-24T18:55:38.600Z,63.11
2019-03-24T18:58:06.954Z,63.21
2019-03-24T19:00:35.316Z,63.01
2019-03-24T19:03:03.683Z,61.90
2019-03-24T19:08:06.282Z,61.91
2019-03-24T19:13:08.909Z,62.61
2019-03-24T19:15:37.559Z,62.15
2019-03-24T19:18:05.646Z,61.82
2019-03-24T19:23:08.309Z,62.82
2019-03-24T19:25:36.656Z,61.07
2019-03-24T19:28:05.046Z,61.40
2019-03-24T19:30:36.308Z,61.68
2019-03-24T19:33:04.663Z,61.24
2019-03-24T19:35:33.049Z,61.99
2019-03-24T19:38:01.443Z,61.62
2019-03-24T19:40:29.792Z,61.32
2019-03-24T19:43:00.062Z,62.38
2019-03-24T19:45:28.410Z,62.38
2019-03-24T19:47:56.783Z,61.53
2019-03-24T19:50:25.142Z,62.05
2019-03-24T19:52:53.481Z,61.98
2019-03-24T19:55:21.833Z,62.34
2019-03-24T19:57:50.190Z,62.71
2019-03-24T20:00:18.552Z,62.65
2019-03-24T20:02:46.908Z,62.45
2019-03-24T20:05:15.310Z,61.56
2019-03-24T20:07:47.869Z,62.80
2019-03-24T20:10:12.075Z,62.60
2019-03-24T20:12:40.447Z,62.94
2019-03-24T20:15:09.740Z,62.96
2019-03-24T20:17:38.338Z,62.99
2019-03-24T20:20:06.726Z,63.63
2019-03-24T20:22:35.153Z,63.67
2019-03-24T20:25:03.577Z,65.96
2019-03-24T20:27:31.949Z,66.18
2019-03-24T20:30:00.427Z,66.83
2019-03-24T20:32:28.736Z,66.89
2019-03-24T20:37:31.348Z,67.02
2019-03-24T20:39:59.698Z,68.40
2019-03-24T20:42:28.109Z,67.35
2019-03-24T20:44:56.452Z,68.34
2019-03-24T20:47:24.831Z,68.50
2019-03-24T20:49:53.176Z,68.35
2019-03-24T20:54:55.857Z,67.28
2019-03-24T20:57:24.324Z,68.39
2019-03-24T20:59:52.671Z,67.88
2019-03-24T21:02:22.053Z,68.05
2019-03-24T21:04:50.399Z,68.02
2019-03-24T21:07:18.792Z,68.39
2019-03-24T21:12:23.381Z,67.36
2019-03-24T21:14:51.734Z,68.72
2019-03-24T21:17:21.032Z,68.31
2019-03-24T21:19:49.481Z,70.18
2019-03-24T21:22:18.800Z,71.31
2019-03-24T21:24:47.151Z,71.59
2019-03-24T21:27:15.484Z,72.98
2019-03-24T21:29:44.781Z,75.47
2019-03-24T21:32:13.276Z,76.53
2019-03-24T21:34:41.732Z,78.07
2019-03-24T21:37:10.048Z,74.76
2019-03-24T21:39:38.500Z,79.77
2019-03-24T21:42:06.856Z,80.47
2019-03-24T21:44:35.232Z,81.56
2019-03-24T21:47:03.592Z,82.46
2019-03-24T21:49:31.990Z,80.33
2019-03-24T21:52:00.371Z,80.22
2019-03-24T21:54:28.784Z,80.62
2019-03-24T21:56:57.188Z,80.89
2019-03-24T21:59:25.592Z,81.45
2019-03-24T22:01:54.315Z,82.27
2019-03-24T22:04:22.743Z,85.17
2019-03-24T22:06:51.084Z,85.90
2019-03-24T22:11:53.767Z,87.48
2019-03-24T22:14:22.141Z,87.54
2019-03-24T22:16:50.492Z,88.55
2019-03-24T22:19:18.862Z,88.49
2019-03-24T22:21:47.180Z,88.37
2019-03-24T22:24:17.529Z,88.47
2019-03-24T22:26:45.901Z,89.41
2019-03-24T22:29:14.246Z,88.82
2019-03-24T22:31:42.647Z,88.03
2019-03-24T22:34:11.853Z,86.43
2019-03-24T22:36:40.261Z,85.33
2019-03-24T22:39:08.598Z,85.65
2019-03-24T22:41:37.024Z,84.82
2019-03-24T22:44:05.391Z,85.21
2019-03-24T22:46:33.741Z,85.23
2019-03-24T22:49:02.108Z,85.90
2019-03-24T22:51:35.140Z,86.09
2019-03-24T22:54:03.701Z,87.42
2019-03-24T22:56:31.910Z,88.28
2019-03-24T22:59:01.233Z,88.85
2019-03-24T23:01:29.573Z,88.16
2019-03-24T23:03:57.934Z,88.49
2019-03-24T23:06:26.275Z,88.17
2019-03-24T23:08:54.654Z,87.64
2019-03-24T23:11:23.007Z,87.71
2019-03-24T23:13:51.353Z,87.60
2019-03-24T23:16:19.741Z,88.08
2019-03-24T23:18:48.085Z,87.18
2019-03-24T23:21:16.471Z,86.46
2019-03-24T23:23:44.820Z,85.60
2019-03-24T23:26:13.173Z,85.57
2019-03-24T23:28:41.515Z,84.63
2019-03-24T23:33:44.214Z,83.58
2019-03-24T23:36:12.611Z,84.21
2019-03-24T23:38:40.920Z,84.23
2019-03-24T23:41:09.288Z,84.71
2019-03-24T23:43:37.634Z,85.12
2019-03-24T23:46:05.983Z,85.33
2019-03-24T23:51:08.593Z,84.34
2019-03-24T23:53:37.927Z,85.10
2019-03-24T23:56:07.217Z,85.84
2019-03-24T23:58:40.781Z,86.12
